sensor_id;sensor_type;location;lat;lon;timestamp;pressure;altitude;pressure_sealevel;temperature;humidity
30073;BME280;16897;52.422;13.678;2024-03-23T00:52:47;100467.81;;;12.94;53.15
30073;BME280;16897;52.422;13.678;2024-03-23T00:56:49;100448.22;;;12.87;53.17
30073;BME280;16897;52.422;13.678;2024-03-23T01:00:51;100441.63;;;12.81;53.18
30073;BME280;16897;52.422;13.678;2024-03-23T01:04:52;100441.00;;;12.77;53.21
30073;BME280;16897;52.422;13.678;2024-03-23T01:08:54;100425.91;;;12.68;52.99
30073;BME280;16897;52.422;13.678;2024-03-23T01:12:55;100423.59;;;12.76;53.13
30073;BME280;16897;52.422;13.678;2024-03-23T01:16:57;100440.34;;;12.74;53.07
30073;BME280;16897;52.422;13.678;2024-03-23T01:20:58;100405.81;;;12.56;53.09
30073;BME280;16897;52.422;13.678;2024-03-23T01:24:59;100401.63;;;12.53;53.23
30073;BME280;16897;52.422;13.678;2024-03-23T01:29:01;100433.44;;;12.73;53.26
30073;BME280;16897;52.422;13.678;2024-03-23T01:33:02;100413.00;;;12.65;53.27
30073;BME280;16897;52.422;13.678;2024-03-23T01:37:04;100414.81;;;12.65;53.39
30073;BME280;16897;52.422;13.678;2024-03-23T01:41:05;100378.56;;;12.46;53.29
30073;BME280;16897;52.422;13.678;2024-03-23T01:45:08;100370.78;;;12.57;53.12
30073;BME280;16897;52.422;13.678;2024-03-23T01:49:10;100357.19;;;12.52;53.12
30073;BME280;16897;52.422;13.678;2024-03-23T01:53:12;100361.47;;;12.53;53.26
30073;BME280;16897;52.422;13.678;2024-03-23T01:57:13;100345.25;;;12.48;53.11
30073;BME280;16897;52.422;13.678;2024-03-23T02:01:15;100336.44;;;12.36;53.04
30073;BME280;16897;52.422;13.678;2024-03-23T02:05:16;100361.78;;;12.35;53.10
30073;BME280;16897;52.422;13.678;2024-03-23T02:09:18;100337.91;;;12.14;53.21
30073;BME280;16897;52.422;13.678;2024-03-23T02:13:19;100324.22;;;12.11;53.25
30073;BME280;16897;52.422;13.678;2024-03-23T02:17:21;100341.69;;;12.23;53.38
30073;BME280;16897;52.422;13.678;2024-03-23T02:21:22;100370.59;;;12.34;53.39
30073;BME280;16897;52.422;13.678;2024-03-23T02:25:24;100366.19;;;12.35;53.36
30073;BME280;16897;52.422;13.678;2024-03-23T02:29:25;100353.53;;;12.29;53.20
30073;BME280;16897;52.422;13.678;2024-03-23T02:33:27;100336.25;;;12.26;53.41
30073;BME280;16897;52.422;13.678;2024-03-23T02:37:28;100346.31;;;12.32;53.38
30073;BME280;16897;52.422;13.678;2024-03-23T02:41:29;100301.47;;;11.99;53.43
30073;BME280;16897;52.422;13.678;2024-03-23T02:45:30;100317.63;;;12.18;53.48
30073;BME280;16897;52.422;13.678;2024-03-23T02:49:32;100324.84;;;12.27;53.36
30073;BME280;16897;52.422;13.678;2024-03-23T02:53:33;100315.41;;;12.25;53.34
30073;BME280;16897;52.422;13.678;2024-03-23T02:57:35;100286.41;;;12.15;53.46
30073;BME280;16897;52.422;13.678;2024-03-23T03:01:36;100242.75;;;11.90;53.37
30073;BME280;16897;52.422;13.678;2024-03-23T03:05:38;100295.63;;;12.21;53.30
30073;BME280;16897;52.422;13.678;2024-03-23T03:09:39;100296.69;;;12.18;53.39
30073;BME280;16897;52.422;13.678;2024-03-23T03:13:41;100291.63;;;12.15;53.33
30073;BME280;16897;52.422;13.678;2024-03-23T03:17:42;100270.19;;;12.10;53.38
30073;BME280;16897;52.422;13.678;2024-03-23T03:21:44;100290.50;;;12.19;53.48
30073;BME280;16897;52.422;13.678;2024-03-23T03:25:45;100259.59;;;11.99;53.43
30073;BME280;16897;52.422;13.678;2024-03-23T03:29:46;100274.38;;;12.12;53.49
30073;BME280;16897;52.422;13.678;2024-03-23T03:33:49;100271.34;;;12.18;53.56
30073;BME280;16897;52.422;13.678;2024-03-23T03:37:51;100208.88;;;11.88;53.45
30073;BME280;16897;52.422;13.678;2024-03-23T03:41:52;100241.59;;;12.07;53.36
30073;BME280;16897;52.422;13.678;2024-03-23T03:45:54;100249.13;;;11.99;53.40
30073;BME280;16897;52.422;13.678;2024-03-23T03:49:56;100227.47;;;11.84;53.43
30073;BME280;16897;52.422;13.678;2024-03-23T03:53:57;100255.00;;;12.02;53.60
30073;BME280;16897;52.422;13.678;2024-03-23T03:57:59;100234.59;;;11.94;53.62
30073;BME280;16897;52.422;13.678;2024-03-23T04:02:00;100236.28;;;11.95;53.50
30073;BME280;16897;52.422;13.678;2024-03-23T04:06:02;100259.50;;;12.00;53.58
30073;BME280;16897;52.422;13.678;2024-03-23T04:10:05;100253.09;;;12.04;53.63
30073;BME280;16897;52.422;13.678;2024-03-23T04:14:08;100230.72;;;12.00;53.72
30073;BME280;16897;52.422;13.678;2024-03-23T04:18:10;100229.38;;;11.94;53.53
30073;BME280;16897;52.422;13.678;2024-03-23T04:22:11;100226.53;;;11.98;53.53
30073;BME280;16897;52.422;13.678;2024-03-23T04:26:13;100224.75;;;11.98;53.73
30073;BME280;16897;52.422;13.678;2024-03-23T04:30:14;100213.53;;;11.96;53.69
30073;BME280;16897;52.422;13.678;2024-03-23T04:34:16;100219.22;;;11.90;53.67
30073;BME280;16897;52.422;13.678;2024-03-23T04:38:18;100222.66;;;11.90;53.72
30073;BME280;16897;52.422;13.678;2024-03-23T04:42:19;100210.19;;;11.81;53.75
30073;BME280;16897;52.422;13.678;2024-03-23T04:46:21;100187.69;;;11.66;53.82
30073;BME280;16897;52.422;13.678;2024-03-23T04:50:23;100230.72;;;11.87;53.81
30073;BME280;16897;52.422;13.678;2024-03-23T04:54:24;100221.22;;;11.86;53.63
30073;BME280;16897;52.422;13.678;2024-03-23T04:58:26;100208.19;;;11.85;53.71
30073;BME280;16897;52.422;13.678;2024-03-23T05:02:28;100191.97;;;11.80;53.84
30073;BME280;16897;52.422;13.678;2024-03-23T05:06:29;100161.53;;;11.66;53.79
30073;BME280;16897;52.422;13.678;2024-03-23T05:10:31;100177.22;;;11.66;53.70
30073;BME280;16897;52.422;13.678;2024-03-23T05:14:35;100172.94;;;11.65;53.72
30073;BME280;16897;52.422;13.678;2024-03-23T05:18:36;100170.13;;;11.55;53.83
30073;BME280;16897;52.422;13.678;2024-03-23T05:22:39;100171.06;;;11.54;53.67
30073;BME280;16897;52.422;13.678;2024-03-23T05:26:41;100163.00;;;11.44;53.76
30073;BME280;16897;52.422;13.678;2024-03-23T05:30:42;100180.47;;;11.44;53.83
30073;BME280;16897;52.422;13.678;2024-03-23T05:34:44;100188.53;;;11.41;53.92
30073;BME280;16897;52.422;13.678;2024-03-23T05:38:45;100159.66;;;11.29;53.79
30073;BME280;16897;52.422;13.678;2024-03-23T05:42:47;100148.78;;;11.36;53.67
30073;BME280;16897;52.422;13.678;2024-03-23T05:46:48;100152.34;;;11.35;53.74
30073;BME280;16897;52.422;13.678;2024-03-23T05:50:50;100149.28;;;11.28;53.99
30073;BME280;16897;52.422;13.678;2024-03-23T05:54:51;100118.47;;;11.07;53.71
30073;BME280;16897;52.422;13.678;2024-03-23T05:58:53;100155.69;;;11.24;53.90
30073;BME280;16897;52.422;13.678;2024-03-23T06:02:54;100151.50;;;11.21;53.87
30073;BME280;16897;52.422;13.678;2024-03-23T06:06:56;100132.56;;;11.18;53.80
30073;BME280;16897;52.422;13.678;2024-03-23T06:10:58;100123.25;;;11.14;53.87
30073;BME280;16897;52.422;13.678;2024-03-23T06:15:00;100127.31;;;11.18;53.79
30073;BME280;16897;52.422;13.678;2024-03-23T06:19:01;100063.13;;;10.88;53.88
30073;BME280;16897;52.422;13.678;2024-03-23T06:23:05;100054.16;;;10.92;54.06
30073;BME280;16897;52.422;13.678;2024-03-23T06:27:06;100079.47;;;11.04;53.93
30073;BME280;16897;52.422;13.678;2024-03-23T06:31:11;100072.44;;;10.92;54.04
30073;BME280;16897;52.422;13.678;2024-03-23T06:35:13;100100.88;;;10.97;54.10
30073;BME280;16897;52.422;13.678;2024-03-23T06:39:15;100076.59;;;10.82;54.04
30073;BME280;16897;52.422;13.678;2024-03-23T06:43:16;100077.16;;;10.87;53.99
30073;BME280;16897;52.422;13.678;2024-03-23T06:47:18;100054.59;;;10.86;53.89
30073;BME280;16897;52.422;13.678;2024-03-23T06:51:20;100044.75;;;10.77;54.10
30073;BME280;16897;52.422;13.678;2024-03-23T06:55:21;100055.31;;;10.75;54.08
30073;BME280;16897;52.422;13.678;2024-03-23T06:59:23;100053.28;;;10.66;53.85
30073;BME280;16897;52.422;13.678;2024-03-23T07:03:24;100067.94;;;10.81;53.93
30073;BME280;16897;52.422;13.678;2024-03-23T07:07:27;100041.22;;;10.78;54.02
30073;BME280;16897;52.422;13.678;2024-03-23T07:11:29;100047.88;;;10.82;53.94
30073;BME280;16897;52.422;13.678;2024-03-23T07:15:30;100033.38;;;10.78;53.86
30073;BME280;16897;52.422;13.678;2024-03-23T07:19:32;100048.91;;;10.79;54.00
30073;BME280;16897;52.422;13.678;2024-03-23T07:23:33;100032.31;;;10.68;54.17
30073;BME280;16897;52.422;13.678;2024-03-23T07:27:35;100033.06;;;10.70;54.22
30073;BME280;16897;52.422;13.678;2024-03-23T07:31:36;100032.84;;;10.73;54.21
30073;BME280;16897;52.422;13.678;2024-03-23T07:35:38;100030.66;;;10.67;54.40
30073;BME280;16897;52.422;13.678;2024-03-23T07:39:39;99997.94;;;10.48;54.13
30073;BME280;16897;52.422;13.678;2024-03-23T07:43:41;100030.53;;;10.68;54.02
30073;BME280;16897;52.422;13.678;2024-03-23T07:47:42;99991.22;;;10.44;54.28
30073;BME280;16897;52.422;13.678;2024-03-23T07:51:44;100015.88;;;10.53;54.10
30073;BME280;16897;52.422;13.678;2024-03-23T07:55:55;100025.06;;;10.58;54.26
30073;BME280;16897;52.422;13.678;2024-03-23T07:59:57;100012.97;;;10.57;54.12
30073;BME280;16897;52.422;13.678;2024-03-23T08:03:59;100016.09;;;10.62;54.24
30073;BME280;16897;52.422;13.678;2024-03-23T08:08:01;100005.03;;;10.59;54.10
30073;BME280;16897;52.422;13.678;2024-03-23T08:12:02;100009.94;;;10.63;54.37
30073;BME280;16897;52.422;13.678;2024-03-23T08:16:04;99949.25;;;10.34;54.35
30073;BME280;16897;52.422;13.678;2024-03-23T08:20:06;99967.00;;;10.42;54.21
30073;BME280;16897;52.422;13.678;2024-03-23T08:24:09;99971.00;;;10.48;54.32
30073;BME280;16897;52.422;13.678;2024-03-23T08:28:10;99954.16;;;10.39;54.34
30073;BME280;16897;52.422;13.678;2024-03-23T08:32:12;99966.69;;;10.47;54.19
30073;BME280;16897;52.422;13.678;2024-03-23T08:36:14;99977.56;;;10.53;54.34
30073;BME280;16897;52.422;13.678;2024-03-23T08:40:15;99954.97;;;10.39;54.34
30073;BME280;16897;52.422;13.678;2024-03-23T08:44:17;99988.53;;;10.58;54.20
30073;BME280;16897;52.422;13.678;2024-03-23T08:48:22;99985.06;;;10.58;54.29
30073;BME280;16897;52.422;13.678;2024-03-23T08:52:23;99973.78;;;10.45;54.11
30073;BME280;16897;52.422;13.678;2024-03-23T08:56:24;99968.34;;;10.35;54.34
30073;BME280;16897;52.422;13.678;2024-03-23T09:00:26;99968.44;;;10.33;54.18
30073;BME280;16897;52.422;13.678;2024-03-23T09:04:27;99971.47;;;10.27;54.34
30073;BME280;16897;52.422;13.678;2024-03-23T09:08:29;99977.31;;;10.31;54.24
30073;BME280;16897;52.422;13.678;2024-03-23T09:12:31;99986.84;;;10.32;54.25
30073;BME280;16897;52.422;13.678;2024-03-23T09:16:32;99962.84;;;10.12;54.41
30073;BME280;16897;52.422;13.678;2024-03-23T09:20:33;99979.69;;;10.21;54.42
30073;BME280;16897;52.422;13.678;2024-03-23T09:24:35;99930.75;;;9.85;54.37
30073;BME280;16897;52.422;13.678;2024-03-23T09:28:36;99997.69;;;10.11;54.39
30073;BME280;16897;52.422;13.678;2024-03-23T09:32:38;99996.88;;;10.11;54.39
30073;BME280;16897;52.422;13.678;2024-03-23T09:36:40;100000.78;;;10.04;54.29
30073;BME280;16897;52.422;13.678;2024-03-23T09:40:41;99967.09;;;9.73;54.43
30073;BME280;16897;52.422;13.678;2024-03-23T09:44:43;100015.00;;;9.85;54.30
30073;BME280;16897;52.422;13.678;2024-03-23T09:48:46;99995.63;;;9.62;54.50
30073;BME280;16897;52.422;13.678;2024-03-23T09:52:48;100037.88;;;9.67;54.22
30073;BME280;16897;52.422;13.678;2024-03-23T09:56:49;100056.31;;;9.50;54.45
30073;BME280;16897;52.422;13.678;2024-03-23T10:00:51;100074.94;;;9.44;54.37
30073;BME280;16897;52.422;13.678;2024-03-23T10:04:52;100074.97;;;9.29;54.45
30073;BME280;16897;52.422;13.678;2024-03-23T10:08:54;100075.50;;;9.20;54.41
30073;BME280;16897;52.422;13.678;2024-03-23T10:12:56;100091.13;;;9.20;54.47
30073;BME280;16897;52.422;13.678;2024-03-23T10:17:18;100079.75;;;9.07;54.40
30073;BME280;16897;52.422;13.678;2024-03-23T10:21:20;100089.16;;;9.09;54.43
30073;BME280;16897;52.422;13.678;2024-03-23T10:25:24;100094.47;;;9.08;54.49
30073;BME280;16897;52.422;13.678;2024-03-23T10:29:26;100084.31;;;9.03;54.53
30073;BME280;16897;52.422;13.678;2024-03-23T10:33:30;100089.63;;;9.02;54.44
30073;BME280;16897;52.422;13.678;2024-03-23T10:37:31;100093.41;;;8.96;54.55
30073;BME280;16897;52.422;13.678;2024-03-23T10:41:33;100093.53;;;8.95;54.65
30073;BME280;16897;52.422;13.678;2024-03-23T10:45:35;100111.56;;;8.98;54.21
30073;BME280;16897;52.422;13.678;2024-03-23T10:49:36;100133.47;;;8.94;54.50
30073;BME280;16897;52.422;13.678;2024-03-23T10:53:38;100130.50;;;8.85;54.33
30073;BME280;16897;52.422;13.678;2024-03-23T10:57:49;100141.91;;;8.83;54.65
30073;BME280;16897;52.422;13.678;2024-03-23T11:01:56;100145.88;;;8.74;54.33
30073;BME280;16897;52.422;13.678;2024-03-23T11:06:02;100154.06;;;8.68;54.54
30073;BME280;16897;52.422;13.678;2024-03-23T11:10:04;100150.69;;;8.66;54.49
30073;BME280;16897;52.422;13.678;2024-03-23T11:14:25;100144.50;;;8.53;54.58
30073;BME280;16897;52.422;13.678;2024-03-23T11:18:27;100166.72;;;8.58;54.50
30073;BME280;16897;52.422;13.678;2024-03-23T11:26:42;100142.59;;;8.40;54.45
30073;BME280;16897;52.422;13.678;2024-03-23T11:30:43;100159.28;;;8.52;54.41
30073;BME280;16897;52.422;13.678;2024-03-23T11:34:45;100148.97;;;8.51;54.60
30073;BME280;16897;52.422;13.678;2024-03-23T11:38:46;100172.34;;;8.67;54.51
30073;BME280;16897;52.422;13.678;2024-03-23T11:42:55;100159.22;;;8.54;54.63
30073;BME280;16897;52.422;13.678;2024-03-23T11:47:07;100177.31;;;8.71;54.56
30073;BME280;16897;52.422;13.678;2024-03-23T11:51:10;100170.69;;;8.66;54.59
30073;BME280;16897;52.422;13.678;2024-03-23T11:55:12;100173.25;;;8.81;54.66
30073;BME280;16897;52.422;13.678;2024-03-23T11:59:33;100193.72;;;8.88;54.65
30073;BME280;16897;52.422;13.678;2024-03-23T12:03:34;100188.53;;;8.88;54.84
30073;BME280;16897;52.422;13.678;2024-03-23T12:07:37;100182.41;;;8.89;54.57
30073;BME280;16897;52.422;13.678;2024-03-23T12:11:38;100152.78;;;8.75;54.67
30073;BME280;16897;52.422;13.678;2024-03-23T12:15:39;100168.78;;;8.99;54.74
30073;BME280;16897;52.422;13.678;2024-03-23T12:19:42;100151.38;;;9.00;54.85
30073;BME280;16897;52.422;13.678;2024-03-23T12:23:44;100144.66;;;8.96;54.74
30073;BME280;16897;52.422;13.678;2024-03-23T12:27:46;100159.59;;;9.08;54.80
30073;BME280;16897;52.422;13.678;2024-03-23T12:31:47;100183.41;;;9.16;54.75
30073;BME280;16897;52.422;13.678;2024-03-23T12:35:52;100178.03;;;9.19;54.89
30073;BME280;16897;52.422;13.678;2024-03-23T12:39:53;100155.03;;;9.12;54.88
30073;BME280;16897;52.422;13.678;2024-03-23T12:43:55;100110.16;;;8.92;54.73
30073;BME280;16897;52.422;13.678;2024-03-23T12:47:56;100146.84;;;9.18;54.87
30073;BME280;16897;52.422;13.678;2024-03-23T12:51:57;100163.72;;;9.26;54.88
30073;BME280;16897;52.422;13.678;2024-03-23T12:56:00;100168.75;;;9.29;54.79
30073;BME280;16897;52.422;13.678;2024-03-23T13:00:02;100160.84;;;9.31;54.92
30073;BME280;16897;52.422;13.678;2024-03-23T13:04:04;100154.78;;;9.30;54.77
30073;BME280;16897;52.422;13.678;2024-03-23T13:08:06;100136.16;;;9.22;54.93
30073;BME280;16897;52.422;13.678;2024-03-23T13:12:08;100140.94;;;9.30;54.92
30073;BME280;16897;52.422;13.678;2024-03-23T13:16:09;100139.34;;;9.27;54.86
30073;BME280;16897;52.422;13.678;2024-03-23T13:20:11;100123.91;;;9.24;55.03
30073;BME280;16897;52.422;13.678;2024-03-23T13:24:15;100132.28;;;9.29;55.12
30073;BME280;16897;52.422;13.678;2024-03-23T13:28:16;100148.28;;;9.38;54.98
30073;BME280;16897;52.422;13.678;2024-03-23T13:32:19;100112.53;;;9.25;54.94
30073;BME280;16897;52.422;13.678;2024-03-23T13:36:20;100148.28;;;9.52;55.17
30073;BME280;16897;52.422;13.678;2024-03-23T13:40:21;100136.78;;;9.56;55.08
30073;BME280;16897;52.422;13.678;2024-03-23T13:44:23;100136.28;;;9.64;55.01
30073;BME280;16897;52.422;13.678;2024-03-23T13:48:26;100130.91;;;9.67;55.16
30073;BME280;16897;52.422;13.678;2024-03-23T13:52:27;100144.56;;;9.85;55.10
30073;BME280;16897;52.422;13.678;2024-03-23T13:56:29;100132.19;;;9.88;55.27
30073;BME280;16897;52.422;13.678;2024-03-23T14:00:30;100146.03;;;10.03;55.18
30073;BME280;16897;52.422;13.678;2024-03-23T14:04:33;100157.78;;;10.10;55.19
30073;BME280;16897;52.422;13.678;2024-03-23T14:08:36;100142.75;;;10.14;55.02
30073;BME280;16897;52.422;13.678;2024-03-23T14:12:40;100124.41;;;10.15;54.99
30073;BME280;16897;52.422;13.678;2024-03-23T14:16:43;100137.06;;;10.22;55.16
30073;BME280;16897;52.422;13.678;2024-03-23T14:20:45;100135.88;;;10.27;55.16
30073;BME280;16897;52.422;13.678;2024-03-23T14:24:46;100142.56;;;10.31;55.05
30073;BME280;16897;52.422;13.678;2024-03-23T14:28:49;100167.06;;;10.43;55.04
30073;BME280;16897;52.422;13.678;2024-03-23T14:32:51;100136.41;;;10.32;54.85
30073;BME280;16897;52.422;13.678;2024-03-23T14:36:53;100146.19;;;10.43;55.04
30073;BME280;16897;52.422;13.678;2024-03-23T14:40:58;100147.28;;;10.53;54.99
30073;BME280;16897;52.422;13.678;2024-03-23T14:45:00;100139.03;;;10.59;55.09
30073;BME280;16897;52.422;13.678;2024-03-23T14:49:01;100101.47;;;10.35;55.12
30073;BME280;16897;52.422;13.678;2024-03-23T14:53:02;100139.03;;;10.59;55.07
30073;BME280;16897;52.422;13.678;2024-03-23T14:57:04;100148.38;;;10.76;55.23
30073;BME280;16897;52.422;13.678;2024-03-23T15:01:07;100155.16;;;10.79;55.16
30073;BME280;16897;52.422;13.678;2024-03-23T15:05:11;100147.34;;;10.79;55.06
30073;BME280;16897;52.422;13.678;2024-03-23T15:09:13;100157.78;;;10.79;55.00
30073;BME280;16897;52.422;13.678;2024-03-23T15:13:15;100163.97;;;10.91;54.91
30073;BME280;16897;52.422;13.678;2024-03-23T15:17:17;100151.22;;;10.86;54.98
30073;BME280;16897;52.422;13.678;2024-03-23T15:21:19;100204.00;;;10.91;55.13
30073;BME280;16897;52.422;13.678;2024-03-23T15:25:22;100199.78;;;10.76;55.08
30073;BME280;16897;52.422;13.678;2024-03-23T15:29:24;100177.25;;;10.60;55.00
30073;BME280;16897;52.422;13.678;2024-03-23T15:33:26;100182.38;;;10.62;55.13
30073;BME280;16897;52.422;13.678;2024-03-23T15:37:28;100173.88;;;10.58;55.08
30073;BME280;16897;52.422;13.678;2024-03-23T15:41:29;100130.91;;;10.37;55.09
30073;BME280;16897;52.422;13.678;2024-03-23T15:45:32;100158.81;;;10.49;55.15
30073;BME280;16897;52.422;13.678;2024-03-23T15:49:33;100142.41;;;10.47;54.96
30073;BME280;16897;52.422;13.678;2024-03-23T15:53:35;100145.03;;;10.47;54.92
30073;BME280;16897;52.422;13.678;2024-03-23T15:57:36;100138.78;;;10.50;54.92
30073;BME280;16897;52.422;13.678;2024-03-23T16:01:38;100144.44;;;10.56;55.14
30073;BME280;16897;52.422;13.678;2024-03-23T16:05:39;100121.66;;;10.58;54.96
30073;BME280;16897;52.422;13.678;2024-03-23T16:09:41;100122.88;;;10.67;55.13
30073;BME280;16897;52.422;13.678;2024-03-23T16:13:42;100120.69;;;10.74;55.12
30073;BME280;16897;52.422;13.678;2024-03-23T16:17:44;100111.19;;;10.73;54.90
30073;BME280;16897;52.422;13.678;2024-03-23T16:21:45;100106.16;;;10.70;54.95
30073;BME280;16897;52.422;13.678;2024-03-23T16:25:51;100079.91;;;10.58;54.94
30073;BME280;16897;52.422;13.678;2024-03-23T16:29:58;100088.69;;;10.57;55.09
30073;BME280;16897;52.422;13.678;2024-03-23T16:34:00;100087.31;;;10.52;55.02
30073;BME280;16897;52.422;13.678;2024-03-23T16:38:01;100092.53;;;10.52;54.84
30073;BME280;16897;52.422;13.678;2024-03-23T16:42:03;100054.84;;;10.29;54.88
30073;BME280;16897;52.422;13.678;2024-03-23T16:46:07;100093.47;;;10.51;55.09
30073;BME280;16897;52.422;13.678;2024-03-23T16:50:11;100073.88;;;10.31;54.98
30073;BME280;16897;52.422;13.678;2024-03-23T16:54:13;100098.03;;;10.47;54.76
30073;BME280;16897;52.422;13.678;2024-03-23T16:58:14;100095.09;;;10.39;54.91
30073;BME280;16897;52.422;13.678;2024-03-23T17:02:16;100109.63;;;10.43;54.85
30073;BME280;16897;52.422;13.678;2024-03-23T17:06:18;100104.81;;;10.37;54.98
30073;BME280;16897;52.422;13.678;2024-03-23T17:10:19;100110.59;;;10.28;54.83
30073;BME280;16897;52.422;13.678;2024-03-23T17:14:21;100120.00;;;10.30;55.04
30073;BME280;16897;52.422;13.678;2024-03-23T17:18:22;100117.78;;;10.24;54.82
30073;BME280;16897;52.422;13.678;2024-03-23T17:22:24;100104.75;;;10.10;54.97
30073;BME280;16897;52.422;13.678;2024-03-23T17:26:26;100088.31;;;9.95;54.95
30073;BME280;16897;52.422;13.678;2024-03-23T17:30:27;100132.97;;;10.17;55.00
30073;BME280;16897;52.422;13.678;2024-03-23T17:34:29;100125.72;;;10.08;54.89
30073;BME280;16897;52.422;13.678;2024-03-23T17:38:30;100128.34;;;10.08;54.92
30073;BME280;16897;52.422;13.678;2024-03-23T17:42:31;100112.31;;;10.00;54.95
30073;BME280;16897;52.422;13.678;2024-03-23T17:46:33;100135.81;;;10.00;54.82
30073;BME280;16897;52.422;13.678;2024-03-23T17:50:34;100158.13;;;10.04;54.77
30073;BME280;16897;52.422;13.678;2024-03-23T17:54:37;100151.91;;;9.92;54.91
30073;BME280;16897;52.422;13.678;2024-03-23T17:58:39;100163.38;;;9.90;54.71
30073;BME280;16897;52.422;13.678;2024-03-23T18:02:41;100126.88;;;9.61;54.66
30073;BME280;16897;52.422;13.678;2024-03-23T18:06:43;100183.50;;;9.88;54.86
30073;BME280;16897;52.422;13.678;2024-03-23T18:10:44;100174.47;;;9.79;54.64
30073;BME280;16897;52.422;13.678;2024-03-23T18:14:47;100173.91;;;9.74;54.82
30073;BME280;16897;52.422;13.678;2024-03-23T18:18:48;100147.66;;;9.48;54.82
30073;BME280;16897;52.422;13.678;2024-03-23T18:22:50;100169.53;;;9.60;54.89
30073;BME280;16897;52.422;13.678;2024-03-23T18:26:51;100137.19;;;9.34;54.89
30073;BME280;16897;52.422;13.678;2024-03-23T18:31:00;100178.38;;;9.58;54.80
30073;BME280;16897;52.422;13.678;2024-03-23T18:35:02;100194.84;;;9.58;54.74
30073;BME280;16897;52.422;13.678;2024-03-23T18:39:04;100182.81;;;9.41;54.92
30073;BME280;16897;52.422;13.678;2024-03-23T18:43:06;100204.88;;;9.50;54.79
30073;BME280;16897;52.422;13.678;2024-03-23T18:47:07;100216.63;;;9.43;54.91
30073;BME280;16897;52.422;13.678;2024-03-23T18:51:09;100200.94;;;9.28;54.87
30073;BME280;16897;52.422;13.678;2024-03-23T18:55:11;100219.56;;;9.37;54.84
30073;BME280;16897;52.422;13.678;2024-03-23T18:59:12;100188.31;;;9.06;54.71
30073;BME280;16897;52.422;13.678;2024-03-23T19:03:14;100213.16;;;9.12;54.72
30073;BME280;16897;52.422;13.678;2024-03-23T19:07:15;100216.97;;;9.06;54.92
30073;BME280;16897;52.422;13.678;2024-03-23T19:11:17;100237.63;;;9.09;54.93
30073;BME280;16897;52.422;13.678;2024-03-23T19:15:18;100234.03;;;8.96;54.92
30073;BME280;16897;52.422;13.678;2024-03-23T19:19:19;100237.56;;;8.95;55.03
30073;BME280;16897;52.422;13.678;2024-03-23T19:23:21;100185.47;;;8.65;55.01
30073;BME280;16897;52.422;13.678;2024-03-23T19:27:23;100241.94;;;8.95;54.99
30073;BME280;16897;52.422;13.678;2024-03-23T19:31:24;100227.00;;;8.82;55.02
30073;BME280;16897;52.422;13.678;2024-03-23T19:35:26;100226.16;;;8.82;55.01
30073;BME280;16897;52.422;13.678;2024-03-23T19:39:27;100227.94;;;8.81;54.92
30073;BME280;16897;52.422;13.678;2024-03-23T19:43:29;100239.09;;;8.83;54.88
30073;BME280;16897;52.422;13.678;2024-03-23T19:47:31;100241.72;;;8.83;55.00
30073;BME280;16897;52.422;13.678;2024-03-23T19:51:32;100225.69;;;8.75;54.80
30073;BME280;16897;52.422;13.678;2024-03-23T19:55:35;100192.69;;;8.60;54.97
30073;BME280;16897;52.422;13.678;2024-03-23T19:59:38;100214.16;;;8.79;54.79
30073;BME280;16897;52.422;13.678;2024-03-23T20:03:39;100205.94;;;8.71;55.05
30073;BME280;16897;52.422;13.678;2024-03-23T20:07:41;100181.25;;;8.62;54.81
30073;BME280;16897;52.422;13.678;2024-03-23T20:11:42;100214.25;;;8.78;55.01
30073;BME280;16897;52.422;13.678;2024-03-23T20:15:53;100209.06;;;8.78;54.90
30073;BME280;16897;52.422;13.678;2024-03-23T20:19:55;100154.31;;;8.48;54.86
30073;BME280;16897;52.422;13.678;2024-03-23T20:23:56;100184.69;;;8.63;54.97
30073;BME280;16897;52.422;13.678;2024-03-23T20:27:58;100213.31;;;8.79;54.92
30073;BME280;16897;52.422;13.678;2024-03-23T20:31:59;100211.56;;;8.79;54.92
30073;BME280;16897;52.422;13.678;2024-03-23T20:36:01;100198.47;;;8.65;54.79
30073;BME280;16897;52.422;13.678;2024-03-23T20:40:03;100196.72;;;8.66;54.99
30073;BME280;16897;52.422;13.678;2024-03-23T20:44:04;100195.94;;;8.63;54.89
30073;BME280;16897;52.422;13.678;2024-03-23T20:48:06;100217.19;;;8.72;54.94
30073;BME280;16897;52.422;13.678;2024-03-23T20:52:07;100219.13;;;8.68;54.97
30073;BME280;16897;52.422;13.678;2024-03-23T20:56:09;100215.88;;;8.64;55.10
30073;BME280;16897;52.422;13.678;2024-03-23T21:00:11;100208.38;;;8.58;54.95
30073;BME280;16897;52.422;13.678;2024-03-23T21:04:12;100209.38;;;8.56;55.06
30073;BME280;16897;52.422;13.678;2024-03-23T21:08:13;100194.63;;;8.40;54.87
30073;BME280;16897;52.422;13.678;2024-03-23T21:12:15;100214.16;;;8.48;55.17
30073;BME280;16897;52.422;13.678;2024-03-23T21:16:17;100196.59;;;8.35;55.01
30073;BME280;16897;52.422;13.678;2024-03-23T21:20:18;100217.88;;;8.44;55.07
30073;BME280;16897;52.422;13.678;2024-03-23T21:24:20;100197.50;;;8.34;54.86
30073;BME280;16897;52.422;13.678;2024-03-23T21:28:21;100157.75;;;8.01;54.98
30073;BME280;16897;52.422;13.678;2024-03-23T21:32:22;100175.84;;;8.18;55.04
30073;BME280;16897;52.422;13.678;2024-03-23T21:36:25;100187.72;;;8.24;54.86
30073;BME280;16897;52.422;13.678;2024-03-23T21:40:26;100185.19;;;8.22;55.05
30073;BME280;16897;52.422;13.678;2024-03-23T21:44:28;100184.25;;;8.23;54.95
30073;BME280;16897;52.422;13.678;2024-03-23T21:48:31;100145.06;;;7.94;54.87
30073;BME280;16897;52.422;13.678;2024-03-23T21:52:35;100171.75;;;8.14;54.92